createdAt,value
2023-04-18T00:00:43.195Z,71.44
2023-04-18T00:03:10.430Z,71.61
2023-04-18T00:05:38.001Z,71.62
2023-04-18T00:08:05.608Z,71.33
2023-04-18T00:10:33.173Z,71.99
2023-04-18T00:13:00.485Z,69.91
2023-04-18T00:15:29.326Z,69.51
2023-04-18T00:18:00.899Z,70.17
2023-04-18T00:20:27.701Z,70.23
2023-04-18T00:22:54.986Z,70.36
2023-04-18T00:25:21.933Z,70.65
2023-04-18T00:27:48.760Z,69.57
2023-04-18T00:30:15.628Z,69.09
2023-04-18T00:32:42.297Z,70.38
2023-04-18T00:35:09.290Z,70.52
2023-04-18T00:37:36.141Z,70.40
2023-04-18T00:40:03.112Z,70.21
2023-04-18T00:42:29.843Z,69.95
2023-04-18T00:44:56.634Z,71.23
2023-04-18T00:47:23.401Z,70.63
2023-04-18T00:49:50.441Z,70.84
2023-04-18T00:52:18.530Z,70.61
2023-04-18T00:54:45.731Z,70.34
2023-04-18T00:57:13.041Z,70.03
2023-04-18T00:59:39.919Z,70.11
2023-04-18T01:02:07.895Z,70.72
2023-04-18T01:04:34.955Z,70.09
2023-04-18T01:07:02.382Z,71.40
2023-04-18T01:09:29.385Z,70.43
2023-04-18T01:11:56.298Z,71.43
2023-04-18T01:14:23.452Z,71.23
2023-04-18T01:16:50.220Z,71.76
2023-04-18T01:19:19.520Z,71.30
2023-04-18T01:21:46.465Z,71.45
2023-04-18T01:24:16.122Z,70.96
2023-04-18T01:26:45.408Z,70.38
2023-04-18T01:29:12.285Z,69.98
2023-04-18T01:31:40.241Z,71.05
2023-04-18T01:34:08.034Z,71.88
2023-04-18T01:36:35.348Z,71.47
2023-04-18T01:39:02.606Z,71.27
2023-04-18T01:41:32.468Z,71.06
2023-04-18T01:43:59.756Z,71.97
2023-04-18T01:46:26.729Z,71.28
2023-04-18T01:48:54.033Z,71.24
2023-04-18T01:51:21.526Z,70.18
2023-04-18T01:53:48.560Z,70.80
2023-04-18T01:56:15.450Z,71.68
2023-04-18T01:58:42.193Z,70.17
2023-04-18T02:01:09.122Z,70.29
2023-04-18T02:03:36.225Z,68.71
2023-04-18T02:06:04.366Z,69.77
2023-04-18T02:08:33.097Z,70.41
2023-04-18T02:11:01.423Z,71.23
2023-04-18T02:13:28.815Z,70.96
2023-04-18T02:15:57.550Z,71.08
2023-04-18T02:18:25.563Z,71.20
2023-04-18T02:20:52.473Z,71.08
2023-04-18T02:23:21.665Z,70.03
2023-04-18T02:25:48.488Z,69.62
2023-04-18T02:28:17.491Z,71.36
2023-04-18T02:30:44.271Z,69.29
2023-04-18T02:33:11.153Z,69.48
2023-04-18T02:35:38.567Z,67.75
2023-04-18T02:38:05.355Z,68.36
2023-04-18T02:40:32.094Z,69.22
2023-04-18T02:42:59.590Z,69.73
2023-04-18T02:45:26.428Z,70.02
2023-04-18T02:47:57.957Z,70.52
2023-04-18T02:50:25.297Z,70.67
2023-04-18T02:52:54.102Z,69.85
2023-04-18T02:55:24.568Z,70.09
2023-04-18T02:57:53.365Z,70.22
2023-04-18T03:00:38.749Z,70.78
2023-04-18T03:03:05.660Z,70.88
2023-04-18T03:05:40.242Z,71.05
2023-04-18T03:08:07.692Z,71.55
2023-04-18T03:10:37.151Z,71.20
2023-04-18T03:13:04.307Z,70.35
2023-04-18T03:15:31.419Z,69.98
2023-04-18T03:17:59.043Z,68.65
2023-04-18T03:20:28.977Z,68.77
2023-04-18T03:22:56.022Z,68.23
2023-04-18T03:25:25.630Z,68.67
2023-04-18T03:27:53.531Z,70.03
2023-04-18T03:30:22.593Z,70.70
2023-04-18T03:32:53.781Z,70.36
2023-04-18T03:35:20.839Z,69.89
2023-04-18T03:37:47.649Z,70.93
2023-04-18T03:40:22.460Z,71.56
2023-04-18T03:42:51.619Z,71.58
2023-04-18T03:45:19.176Z,72.04
2023-04-18T03:47:47.295Z,71.22
2023-04-18T03:50:15.273Z,71.20
2023-04-18T03:52:43.666Z,71.63
2023-04-18T03:55:11.494Z,72.02
2023-04-18T03:57:38.502Z,71.34
2023-04-18T04:00:10.700Z,71.58
2023-04-18T04:02:43.329Z,71.33
2023-04-18T04:05:16.489Z,71.69
2023-04-18T04:07:43.718Z,72.38
2023-04-18T04:10:12.485Z,71.46
2023-04-18T04:12:39.271Z,72.10
2023-04-18T04:15:06.844Z,72.76
2023-04-18T04:17:34.621Z,71.50
2023-04-18T04:20:02.007Z,70.25
2023-04-18T04:22:30.306Z,70.93
2023-04-18T04:24:57.855Z,70.47
2023-04-18T04:27:34.089Z,70.31
2023-04-18T04:30:02.624Z,69.72
2023-04-18T04:32:30.291Z,70.01
2023-04-18T04:34:57.069Z,70.33
2023-04-18T04:37:24.494Z,70.10
2023-04-18T04:40:06.498Z,70.57
2023-04-18T04:42:44.267Z,71.49
2023-04-18T04:45:20.428Z,72.05
2023-04-18T04:47:47.670Z,72.24
2023-04-18T04:50:18.818Z,72.18
2023-04-18T04:52:45.981Z,70.81
2023-04-18T04:55:13.422Z,70.61
2023-04-18T04:57:44.823Z,71.94
2023-04-18T05:00:30.248Z,72.68
2023-04-18T05:03:00.153Z,70.36
2023-04-18T05:05:28.200Z,71.28
2023-04-18T05:07:55.059Z,70.84
2023-04-18T05:10:22.093Z,71.21
2023-04-18T05:12:48.832Z,71.00
2023-04-18T05:15:16.561Z,71.54
2023-04-18T05:17:43.330Z,72.57
2023-04-18T05:20:10.491Z,71.80
2023-04-18T05:22:37.351Z,71.85
2023-04-18T05:25:04.787Z,71.59
2023-04-18T05:27:31.487Z,71.56
2023-04-18T05:29:58.185Z,72.77
2023-04-18T05:32:24.901Z,73.02
2023-04-18T05:34:51.826Z,72.66
2023-04-18T05:37:18.652Z,72.66
2023-04-18T05:39:45.372Z,73.53
2023-04-18T05:42:12.089Z,73.64
2023-04-18T05:44:38.941Z,72.87
2023-04-18T05:47:06.586Z,73.15
2023-04-18T05:49:33.650Z,73.30
2023-04-18T05:52:00.398Z,73.58
2023-04-18T05:54:27.525Z,72.30
2023-04-18T05:56:55.095Z,72.13
2023-04-18T05:59:21.868Z,71.87
2023-04-18T06:01:49.489Z,71.94
2023-04-18T06:04:16.852Z,70.88
2023-04-18T06:06:43.961Z,69.10
2023-04-18T06:09:10.737Z,69.83
2023-04-18T06:11:37.541Z,72.53
2023-04-18T06:14:04.345Z,68.36
2023-04-18T06:16:31.258Z,68.20
2023-04-18T06:19:01.207Z,68.75
2023-04-18T06:21:28.279Z,68.73
2023-04-18T06:23:55.153Z,68.93
2023-04-18T06:26:21.918Z,66.96
2023-04-18T06:28:48.747Z,68.45
2023-04-18T06:31:15.584Z,67.15
2023-04-18T06:33:42.404Z,66.67
2023-04-18T06:36:09.578Z,65.90
2023-04-18T06:38:36.273Z,60.86
2023-04-18T06:41:03.151Z,62.22
2023-04-18T06:43:29.834Z,63.24
2023-04-18T06:45:56.944Z,60.45
2023-04-18T06:48:23.706Z,62.56
2023-04-18T06:50:50.665Z,63.41
2023-04-18T06:53:17.595Z,63.55
2023-04-18T06:55:44.504Z,64.23
2023-04-18T06:58:13.677Z,63.01
2023-04-18T07:00:40.543Z,63.98
2023-04-18T07:03:11.469Z,63.74
2023-04-18T07:05:41.287Z,64.19
2023-04-18T07:08:07.989Z,65.40
2023-04-18T07:10:34.998Z,65.19
2023-04-18T07:13:01.845Z,65.55
2023-04-18T07:15:28.820Z,66.76
2023-04-18T07:17:55.610Z,67.66
2023-04-18T07:20:22.478Z,66.98
2023-04-18T07:22:49.350Z,65.92
2023-04-18T07:25:16.207Z,64.14
2023-04-18T07:27:42.994Z,63.88
2023-04-18T07:30:10.324Z,63.79
2023-04-18T07:32:37.028Z,65.16
2023-04-18T07:35:04.417Z,67.20
2023-04-18T07:37:31.655Z,66.70
2023-04-18T07:39:58.812Z,65.63
2023-04-18T07:42:25.814Z,65.02
2023-04-18T07:44:59.337Z,64.31
2023-04-18T07:47:29.798Z,63.93
2023-04-18T07:49:57.742Z,63.64
2023-04-18T07:52:24.464Z,63.67
2023-04-18T07:54:51.615Z,63.42
2023-04-18T07:57:18.438Z,61.68
2023-04-18T07:59:45.226Z,59.68
2023-04-18T08:02:12.186Z,57.72
2023-04-18T08:04:39.172Z,56.49
2023-04-18T08:07:06.196Z,56.53
2023-04-18T08:09:33.050Z,54.98
2023-04-18T08:11:59.751Z,55.11
2023-04-18T08:14:26.508Z,53.73
2023-04-18T08:16:53.287Z,54.89
2023-04-18T08:19:23.764Z,53.91
2023-04-18T08:21:51.998Z,54.07
2023-04-18T08:24:18.765Z,54.39
2023-04-18T08:26:45.807Z,54.58
2023-04-18T08:29:13.088Z,52.00
2023-04-18T08:31:40.352Z,52.64
2023-04-18T08:34:07.162Z,54.00
2023-04-18T08:36:34.856Z,54.05
2023-04-18T08:39:01.932Z,54.65
2023-04-18T08:41:35.792Z,49.50
2023-04-18T08:44:03.401Z,47.39
2023-04-18T08:46:34.178Z,50.11
2023-04-18T08:49:03.951Z,49.28
2023-04-18T08:51:33.042Z,48.52
2023-04-18T08:54:04.662Z,49.38
2023-04-18T08:56:31.945Z,50.37
2023-04-18T08:59:00.382Z,46.73
2023-04-18T09:01:56.493Z,44.95
2023-04-18T09:04:44.858Z,46.68
2023-04-18T09:07:19.500Z,45.03
2023-04-18T09:09:51.242Z,45.83
2023-04-18T09:12:22.932Z,44.70
2023-04-18T09:14:51.476Z,46.65
2023-04-18T09:17:35.440Z,44.81
2023-04-18T09:20:05.262Z,44.64
2023-04-18T09:22:51.953Z,45.05
2023-04-18T09:25:44.142Z,43.75
2023-04-18T09:28:31.899Z,44.44
2023-04-18T09:31:11.963Z,44.38
2023-04-18T09:33:44.920Z,43.21
2023-04-18T09:36:27.426Z,44.78
2023-04-18T09:38:56.535Z,46.94
2023-04-18T09:41:24.371Z,44.73
2023-04-18T09:44:12.365Z,45.58
2023-04-18T09:46:41.064Z,48.86
2023-04-18T09:49:10.359Z,45.85
2023-04-18T09:51:40.135Z,44.75
2023-04-18T09:54:08.344Z,47.12
2023-04-18T09:56:38.090Z,45.35
2023-04-18T09:59:09.525Z,46.96
2023-04-18T10:01:36.785Z,44.63
2023-04-18T10:04:06.870Z,42.52
2023-04-18T10:06:35.193Z,44.67
2023-04-18T10:09:05.841Z,48.43
2023-04-18T10:11:32.599Z,45.61
2023-04-18T10:14:04.783Z,44.81
2023-04-18T10:16:34.079Z,45.11
2023-04-18T10:19:26.824Z,44.07
2023-04-18T10:21:55.442Z,40.56
2023-04-18T10:24:44.012Z,41.65
2023-04-18T10:27:10.889Z,41.70
2023-04-18T10:29:51.773Z,43.09
2023-04-18T10:32:22.187Z,44.57
2023-04-18T10:34:55.210Z,43.53
2023-04-18T10:37:22.056Z,43.73
2023-04-18T10:40:03.002Z,45.80
2023-04-18T10:42:47.945Z,45.30
2023-04-18T10:45:22.400Z,42.17
2023-04-18T10:47:49.982Z,44.84
2023-04-18T10:50:17.493Z,43.78
2023-04-18T10:52:56.725Z,45.60
2023-04-18T11:16:54.744Z,47.17
2023-04-18T11:19:23.762Z,47.52
2023-04-18T11:22:17.346Z,48.75
2023-04-18T11:24:44.694Z,47.07
2023-04-18T11:27:12.872Z,48.22
2023-04-18T11:29:39.701Z,48.65
2023-04-18T11:32:07.896Z,50.75
2023-04-18T11:34:36.009Z,46.81
2023-04-18T11:37:07.713Z,47.23
2023-04-18T11:39:36.527Z,45.19
2023-04-18T11:42:03.537Z,48.53
2023-04-18T11:44:30.480Z,47.45
2023-04-18T11:46:57.284Z,49.54
2023-04-18T11:49:32.204Z,49.54
2023-04-18T11:52:00.198Z,48.09
2023-04-18T11:54:43.866Z,48.82
2023-04-18T11:57:28.283Z,48.95
2023-04-18T12:00:00.955Z,49.72
2023-04-18T12:02:43.295Z,48.54
2023-04-18T12:05:15.331Z,51.16
2023-04-18T12:07:45.047Z,50.82
2023-04-18T12:10:30.296Z,49.51
2023-04-18T12:12:59.100Z,53.40
2023-04-18T12:15:28.688Z,52.56
2023-04-18T12:18:05.052Z,50.75
2023-04-18T12:20:36.886Z,54.38
2023-04-18T12:23:04.024Z,53.94
2023-04-18T12:25:31.700Z,52.70
2023-04-18T12:28:14.935Z,51.06
2023-04-18T12:30:42.577Z,50.47
2023-04-18T12:33:09.337Z,47.78
2023-04-18T12:35:36.218Z,46.41
2023-04-18T12:38:03.207Z,45.22
2023-04-18T12:40:30.300Z,45.14
2023-04-18T12:42:57.506Z,44.58
2023-04-18T12:45:24.643Z,42.66
2023-04-18T12:47:52.505Z,44.58
2023-04-18T12:50:21.829Z,44.43
2023-04-18T12:52:49.570Z,42.68
2023-04-18T12:55:16.326Z,47.09
2023-04-18T12:57:43.894Z,42.52
2023-04-18T13:00:13.326Z,45.72
2023-04-18T13:02:43.742Z,44.35
2023-04-18T13:05:15.790Z,44.49
2023-04-18T13:07:43.587Z,43.68
2023-04-18T13:10:12.799Z,43.09
2023-04-18T13:12:42.711Z,43.21
2023-04-18T13:15:10.045Z,41.99
2023-04-18T13:17:38.810Z,44.06
2023-04-18T13:20:07.396Z,42.17
2023-04-18T13:22:35.396Z,43.75
2023-04-18T13:25:03.179Z,43.00
2023-04-18T13:27:30.105Z,43.39
2023-04-18T13:29:57.487Z,42.80
2023-04-18T13:32:25.401Z,42.76
2023-04-18T13:34:52.330Z,44.42
2023-04-18T13:37:19.205Z,43.60
2023-04-18T13:39:46.506Z,41.79
2023-04-18T13:42:15.947Z,43.05
2023-04-18T13:44:43.123Z,42.54
2023-04-18T13:47:09.928Z,41.83
2023-04-18T13:49:37.195Z,39.33
2023-04-18T13:52:04.855Z,40.26
2023-04-18T13:54:32.850Z,40.99
2023-04-18T13:57:11.599Z,43.22
2023-04-18T13:59:40.589Z,42.40
2023-04-18T14:02:08.344Z,42.65
2023-04-18T14:04:35.925Z,41.96
2023-04-18T14:07:03.853Z,41.46
2023-04-18T14:09:30.675Z,42.97
2023-04-18T14:11:58.283Z,41.22
2023-04-18T14:14:25.867Z,40.87
2023-04-18T14:16:53.754Z,39.65
2023-04-18T14:19:21.757Z,40.49
2023-04-18T14:21:48.651Z,43.23
2023-04-18T14:24:15.446Z,43.82
2023-04-18T14:26:42.407Z,42.51
2023-04-18T14:29:09.152Z,43.38
2023-04-18T14:31:35.985Z,44.70
2023-04-18T14:34:02.814Z,44.50
2023-04-18T14:36:29.584Z,46.30
2023-04-18T14:38:56.356Z,46.23
2023-04-18T14:41:23.190Z,47.53
2023-04-18T14:43:49.972Z,47.07
2023-04-18T14:46:16.831Z,47.12
2023-04-18T14:48:47.457Z,46.29
2023-04-18T14:51:17.163Z,46.77
2023-04-18T14:53:44.767Z,47.64
2023-04-18T14:56:12.113Z,47.36
2023-04-18T14:58:38.876Z,47.49
2023-04-18T15:01:05.730Z,47.98
2023-04-18T15:03:33.151Z,47.57
2023-04-18T15:06:00.491Z,45.43
2023-04-18T15:08:27.736Z,47.10
2023-04-18T15:10:54.486Z,46.89
2023-04-18T15:13:21.605Z,48.23
2023-04-18T15:15:56.345Z,49.46
2023-04-18T15:18:26.851Z,48.19
2023-04-18T15:20:53.985Z,47.64
2023-04-18T15:23:20.899Z,47.01
2023-04-18T15:25:47.815Z,47.02
2023-04-18T15:28:14.714Z,47.04
2023-04-18T15:30:44.629Z,47.17
2023-04-18T15:33:13.029Z,44.26
2023-04-18T15:35:39.788Z,45.73
2023-04-18T15:38:06.884Z,46.19
2023-04-18T15:40:36.337Z,45.66
2023-04-18T15:43:04.200Z,47.46
2023-04-18T15:45:31.332Z,48.45
2023-04-18T15:47:58.809Z,49.59
2023-04-18T15:50:26.113Z,50.20
2023-04-18T15:52:52.917Z,48.03
2023-04-18T15:55:19.842Z,48.02
2023-04-18T15:57:47.239Z,46.66
2023-04-18T16:00:17.534Z,47.61
2023-04-18T16:02:45.993Z,48.46
2023-04-18T16:05:13.635Z,49.46
2023-04-18T16:07:41.444Z,47.60
2023-04-18T16:10:10.509Z,48.97
2023-04-18T16:12:37.957Z,50.25
2023-04-18T16:15:09.924Z,51.07
2023-04-18T16:17:37.885Z,50.12
2023-04-18T16:20:09.300Z,49.99
2023-04-18T16:22:37.223Z,49.16
2023-04-18T16:25:04.737Z,49.27
2023-04-18T16:27:32.244Z,48.97
2023-04-18T16:29:59.205Z,48.60
2023-04-18T16:32:26.114Z,48.85
2023-04-18T16:34:53.009Z,49.61
2023-04-18T16:37:20.421Z,50.45
2023-04-18T16:39:47.294Z,51.66
2023-04-18T16:42:15.651Z,52.05
2023-04-18T16:44:43.987Z,53.15
2023-04-18T16:47:10.845Z,52.91
2023-04-18T16:49:37.641Z,51.77
2023-04-18T16:52:04.534Z,51.46
2023-04-18T16:54:31.463Z,51.48
2023-04-18T16:56:58.386Z,51.52
2023-04-18T16:59:25.289Z,52.74
2023-04-18T17:01:52.175Z,53.88
2023-04-18T17:04:19.324Z,55.27
2023-04-18T17:06:46.668Z,56.46
2023-04-18T17:09:14.828Z,56.70
2023-04-18T17:11:42.025Z,57.59
2023-04-18T17:14:09.336Z,58.45
2023-04-18T17:16:40.481Z,58.67
2023-04-18T17:19:07.767Z,59.56
2023-04-18T17:21:35.434Z,60.09
2023-04-18T17:24:04.099Z,59.74
2023-04-18T17:26:31.120Z,60.22
2023-04-18T17:28:58.428Z,60.82
2023-04-18T17:31:25.219Z,61.91
2023-04-18T17:33:52.128Z,63.10
2023-04-18T17:36:18.976Z,62.96
2023-04-18T17:38:49.178Z,62.88
2023-04-18T17:41:19.129Z,63.34
2023-04-18T17:43:46.772Z,64.00
2023-04-18T17:46:14.465Z,64.37
2023-04-18T17:48:41.609Z,65.07
2023-04-18T17:51:08.335Z,65.98
2023-04-18T17:53:35.115Z,66.33
2023-04-18T17:56:03.577Z,66.76
2023-04-18T17:58:30.551Z,67.24
2023-04-18T18:00:57.461Z,67.51
2023-04-18T18:03:24.610Z,67.49
2023-04-18T18:05:51.914Z,67.44
2023-04-18T18:08:18.695Z,67.99
2023-04-18T18:10:47.176Z,68.51
2023-04-18T18:13:14.012Z,68.70
2023-04-18T18:15:40.761Z,69.18
2023-04-18T18:18:07.649Z,69.63
2023-04-18T18:20:34.529Z,69.62
2023-04-18T18:23:01.789Z,70.07
2023-04-18T18:25:28.938Z,70.00
2023-04-18T18:27:55.904Z,69.92
2023-04-18T18:30:22.726Z,70.55
2023-04-18T18:32:49.700Z,70.83
2023-04-18T18:35:16.755Z,71.43
2023-04-18T18:37:43.688Z,71.53
2023-04-18T18:40:10.936Z,71.04
2023-04-18T18:42:37.902Z,70.75
2023-04-18T18:45:05.946Z,71.15
2023-04-18T18:47:34.404Z,70.69
2023-04-18T18:50:01.461Z,69.83
2023-04-18T18:52:30.990Z,69.23
2023-04-18T18:54:57.811Z,68.06
2023-04-18T18:57:24.635Z,68.79
2023-04-18T18:59:52.115Z,68.83
2023-04-18T19:02:20.258Z,68.63
2023-04-18T19:04:47.837Z,68.75
2023-04-18T19:07:14.688Z,69.09
2023-04-18T19:09:41.479Z,69.89
2023-04-18T19:12:08.931Z,69.67
2023-04-18T19:14:35.882Z,69.69
2023-04-18T19:17:03.126Z,68.14
2023-04-18T19:19:30.017Z,68.94
2023-04-18T19:21:57.896Z,69.81
2023-04-18T19:24:24.695Z,69.47
2023-04-18T19:26:51.590Z,69.84
2023-04-18T19:29:18.500Z,70.25
2023-04-18T19:31:45.704Z,70.88
2023-04-18T19:34:13.511Z,70.13
2023-04-18T19:36:40.390Z,69.56
2023-04-18T19:39:08.144Z,69.51
2023-04-18T19:41:35.040Z,69.34
2023-04-18T19:44:01.863Z,69.11
2023-04-18T19:46:28.765Z,69.25
2023-04-18T19:48:55.795Z,68.35
2023-04-18T19:51:22.929Z,69.23
2023-04-18T19:53:49.757Z,68.72
2023-04-18T19:56:16.785Z,67.98
2023-04-18T19:58:47.007Z,68.00
2023-04-18T20:01:18.920Z,67.76
2023-04-18T20:03:47.217Z,67.74
2023-04-18T20:06:14.333Z,68.39
2023-04-18T20:08:47.571Z,68.14
2023-04-18T20:11:14.874Z,67.38
2023-04-18T20:13:41.844Z,68.06
2023-04-18T20:16:09.470Z,67.92
2023-04-18T20:18:41.612Z,68.54
2023-04-18T20:21:10.003Z,68.19
2023-04-18T20:23:38.126Z,66.69
2023-04-18T20:26:05.174Z,66.81
2023-04-18T20:28:32.228Z,66.66
2023-04-18T20:30:59.452Z,66.56
2023-04-18T20:33:26.390Z,66.19
2023-04-18T20:35:54.808Z,67.41
2023-04-18T20:38:26.210Z,66.95
2023-04-18T20:40:54.251Z,67.17
2023-04-18T20:43:21.504Z,66.75
2023-04-18T20:45:51.128Z,65.94
2023-04-18T20:48:18.850Z,67.17
2023-04-18T20:50:51.135Z,67.98
2023-04-18T20:53:22.580Z,68.17
2023-04-18T20:55:49.757Z,68.10
2023-04-18T20:58:16.876Z,67.01
2023-04-18T21:00:48.330Z,67.82
2023-04-18T21:03:16.591Z,67.39
2023-04-18T21:05:44.621Z,66.89
2023-04-18T21:08:11.580Z,66.70
2023-04-18T21:10:38.512Z,66.72
2023-04-18T21:13:05.466Z,67.44
2023-04-18T21:15:32.347Z,67.01
2023-04-18T21:17:59.354Z,67.65
2023-04-18T21:20:26.271Z,66.88
2023-04-18T21:22:53.092Z,66.84
2023-04-18T21:25:21.383Z,67.16
2023-04-18T21:27:50.664Z,67.33
2023-04-18T21:30:18.176Z,69.14
2023-04-18T21:32:47.312Z,69.49
2023-04-18T21:35:15.265Z,66.70
2023-04-18T21:37:43.534Z,66.39
2023-04-18T21:40:11.247Z,66.24
2023-04-18T21:42:37.987Z,66.89
2023-04-18T21:45:06.450Z,67.27
2023-04-18T21:47:33.333Z,68.03
2023-04-18T21:50:00.362Z,67.99
2023-04-18T21:52:27.221Z,67.46
2023-04-18T21:55:01.756Z,68.43
2023-04-18T21:57:29.241Z,67.61
2023-04-18T21:59:57.770Z,67.57
2023-04-18T22:02:25.948Z,67.89
2023-04-18T22:04:52.826Z,67.84
2023-04-18T22:07:19.800Z,67.80
2023-04-18T22:09:46.985Z,69.43
2023-04-18T22:12:16.991Z,68.28
2023-04-18T22:14:48.279Z,67.48
2023-04-18T22:17:15.159Z,67.37
2023-04-18T22:19:44.567Z,67.62
2023-04-18T22:22:12.209Z,67.55
2023-04-18T22:24:39.038Z,67.35
2023-04-18T22:27:06.182Z,68.19
2023-04-18T22:29:33.176Z,67.13
2023-04-18T22:32:02.880Z,67.13
2023-04-18T22:34:29.603Z,67.00
2023-04-18T22:36:56.267Z,67.21
2023-04-18T22:39:23.092Z,68.02
2023-04-18T22:41:49.768Z,67.37
2023-04-18T22:44:16.710Z,67.19
2023-04-18T22:46:44.700Z,67.75
2023-04-18T22:49:11.656Z,68.16
2023-04-18T22:51:38.809Z,68.78
2023-04-18T22:54:05.804Z,68.45
2023-04-18T22:56:32.488Z,67.90
2023-04-18T22:58:59.205Z,68.04
2023-04-18T23:01:26.167Z,69.07
2023-04-18T23:03:53.103Z,68.45
2023-04-18T23:06:19.963Z,69.55
2023-04-18T23:08:46.737Z,68.00
2023-04-18T23:11:13.886Z,68.21
2023-04-18T23:13:40.669Z,67.85
2023-04-18T23:16:08.062Z,67.66
2023-04-18T23:18:35.155Z,68.13
2023-04-18T23:21:01.826Z,68.53
2023-04-18T23:23:28.684Z,68.23
2023-04-18T23:25:55.580Z,68.51
2023-04-18T23:28:22.680Z,69.61
2023-04-18T23:30:50.294Z,68.52
2023-04-18T23:33:17.059Z,68.68
2023-04-18T23:35:43.848Z,69.92
2023-04-18T23:38:11.255Z,70.41
2023-04-18T23:40:37.986Z,68.65
2023-04-18T23:43:04.730Z,69.41
2023-04-18T23:45:31.420Z,69.35
2023-04-18T23:47:58.296Z,68.64
2023-04-18T23:50:25.045Z,69.44
2023-04-18T23:52:51.991Z,69.99
2023-04-18T23:55:18.664Z,70.45
2023-04-18T23:57:45.414Z,71.07
